sensor_id;sensor_type;location;lat;lon;timestamp;temperature;humidity
18266;DHT22;9259;48.194;16.322;2023-04-19T00:00:50;10.20;99.90
18266;DHT22;9259;48.194;16.322;2023-04-19T00:03:18;10.20;99.90
18266;DHT22;9259;48.194;16.322;2023-04-19T00:05:45;10.20;99.90
18266;DHT22;9259;48.194;16.322;2023-04-19T00:08:14;10.10;99.90
18266;DHT22;9259;48.194;16.322;2023-04-19T00:10:43;10.10;99.90
18266;DHT22;9259;48.194;16.322;2023-04-19T00:13:11;10.00;99.90
18266;DHT22;9259;48.194;16.322;2023-04-19T00:15:39;9.90;99.90
18266;DHT22;9259;48.194;16.322;2023-04-19T00:18:07;9.80;99.90
18266;DHT22;9259;48.194;16.322;2023-04-19T00:20:35;9.80;99.90
18266;DHT22;9259;48.194;16.322;2023-04-19T00:23:03;9.70;99.90
18266;DHT22;9259;48.194;16.322;2023-04-19T00:25:30;9.70;99.90
18266;DHT22;9259;48.194;16.322;2023-04-19T00:28:01;9.70;99.90
18266;DHT22;9259;48.194;16.322;2023-04-19T00:30:29;9.60;99.90
18266;DHT22;9259;48.194;16.322;2023-04-19T00:32:57;9.70;99.90
18266;DHT22;9259;48.194;16.322;2023-04-19T00:35:25;9.60;99.90
18266;DHT22;9259;48.194;16.322;2023-04-19T00:37:55;9.60;99.90
18266;DHT22;9259;48.194;16.322;2023-04-19T00:40:23;9.60;99.90
18266;DHT22;9259;48.194;16.322;2023-04-19T00:42:51;9.60;99.90
18266;DHT22;9259;48.194;16.322;2023-04-19T00:45:20;9.50;99.90
18266;DHT22;9259;48.194;16.322;2023-04-19T00:47:48;9.50;99.90
18266;DHT22;9259;48.194;16.322;2023-04-19T00:50:16;9.50;99.90
18266;DHT22;9259;48.194;16.322;2023-04-19T01:00:11;9.50;99.90
18266;DHT22;9259;48.194;16.322;2023-04-19T01:02:41;9.50;99.90
18266;DHT22;9259;48.194;16.322;2023-04-19T01:05:09;9.50;99.90
18266;DHT22;9259;48.194;16.322;2023-04-19T01:07:37;9.50;99.90
18266;DHT22;9259;48.194;16.322;2023-04-19T15:23:50;9.50;99.90
18266;DHT22;9259;48.194;16.322;2023-04-19T15:26:19;12.30;99.90
18266;DHT22;9259;48.194;16.322;2023-04-19T15:28:48;12.10;99.90
18266;DHT22;9259;48.194;16.322;2023-04-19T15:31:16;11.80;99.90
18266;DHT22;9259;48.194;16.322;2023-04-19T15:33:44;11.70;99.90
18266;DHT22;9259;48.194;16.322;2023-04-19T15:36:12;11.60;99.90
18266;DHT22;9259;48.194;16.322;2023-04-19T15:38:40;11.50;99.90
18266;DHT22;9259;48.194;16.322;2023-04-19T15:41:08;11.60;99.90
18266;DHT22;9259;48.194;16.322;2023-04-19T15:43:37;11.70;99.90
18266;DHT22;9259;48.194;16.322;2023-04-19T15:46:05;11.60;99.90
18266;DHT22;9259;48.194;16.322;2023-04-19T15:48:33;11.60;99.90
18266;DHT22;9259;48.194;16.322;2023-04-19T15:51:01;11.70;99.90
18266;DHT22;9259;48.194;16.322;2023-04-19T15:53:30;11.60;99.90
18266;DHT22;9259;48.194;16.322;2023-04-19T15:55:58;11.50;99.90
18266;DHT22;9259;48.194;16.322;2023-04-19T15:58:25;11.40;99.90
18266;DHT22;9259;48.194;16.322;2023-04-19T16:00:55;11.20;99.90
18266;DHT22;9259;48.194;16.322;2023-04-19T16:03:22;11.20;99.90
18266;DHT22;9259;48.194;16.322;2023-04-19T16:05:50;11.40;99.90
18266;DHT22;9259;48.194;16.322;2023-04-19T16:08:18;11.40;99.90
18266;DHT22;9259;48.194;16.322;2023-04-19T16:10:47;11.30;99.90
18266;DHT22;9259;48.194;16.322;2023-04-19T16:13:15;11.30;99.90
18266;DHT22;9259;48.194;16.322;2023-04-19T16:15:44;11.30;99.90
18266;DHT22;9259;48.194;16.322;2023-04-19T16:18:13;11.30;99.90
18266;DHT22;9259;48.194;16.322;2023-04-19T16:20:41;11.20;99.90
18266;DHT22;9259;48.194;16.322;2023-04-19T16:23:09;11.20;99.90
18266;DHT22;9259;48.194;16.322;2023-04-19T16:25:37;11.10;99.90
18266;DHT22;9259;48.194;16.322;2023-04-19T16:28:06;11.00;99.90
18266;DHT22;9259;48.194;16.322;2023-04-19T16:30:34;11.20;99.90
18266;DHT22;9259;48.194;16.322;2023-04-19T16:33:02;11.00;99.90
18266;DHT22;9259;48.194;16.322;2023-04-19T16:35:32;10.90;99.90
18266;DHT22;9259;48.194;16.322;2023-04-19T16:38:00;10.90;99.90
18266;DHT22;9259;48.194;16.322;2023-04-19T16:40:29;10.90;99.90
18266;DHT22;9259;48.194;16.322;2023-04-19T16:42:57;10.90;99.90
18266;DHT22;9259;48.194;16.322;2023-04-19T16:45:25;10.80;99.90
18266;DHT22;9259;48.194;16.322;2023-04-19T16:47:53;10.80;99.90
18266;DHT22;9259;48.194;16.322;2023-04-19T16:50:21;10.70;99.90
18266;DHT22;9259;48.194;16.322;2023-04-19T16:52:51;10.70;99.90
18266;DHT22;9259;48.194;16.322;2023-04-19T16:55:19;10.60;99.90
18266;DHT22;9259;48.194;16.322;2023-04-19T16:57:47;10.50;99.90
18266;DHT22;9259;48.194;16.322;2023-04-19T17:00:16;10.50;99.90
18266;DHT22;9259;48.194;16.322;2023-04-19T17:02:45;10.40;99.90
18266;DHT22;9259;48.194;16.322;2023-04-19T17:05:13;10.40;99.90
18266;DHT22;9259;48.194;16.322;2023-04-19T17:07:42;10.30;99.90
18266;DHT22;9259;48.194;16.322;2023-04-19T17:10:12;10.20;99.90
18266;DHT22;9259;48.194;16.322;2023-04-19T17:12:40;10.10;99.90
18266;DHT22;9259;48.194;16.322;2023-04-19T17:15:09;10.10;99.90
18266;DHT22;9259;48.194;16.322;2023-04-19T17:17:37;10.10;99.90
18266;DHT22;9259;48.194;16.322;2023-04-19T17:20:06;10.10;99.90
18266;DHT22;9259;48.194;16.322;2023-04-19T17:22:35;10.10;99.90
18266;DHT22;9259;48.194;16.322;2023-04-19T17:25:04;10.00;99.90
18266;DHT22;9259;48.194;16.322;2023-04-19T17:27:35;10.00;99.90
18266;DHT22;9259;48.194;16.322;2023-04-19T17:30:05;10.00;99.90
18266;DHT22;9259;48.194;16.322;2023-04-19T17:32:35;9.90;99.90
18266;DHT22;9259;48.194;16.322;2023-04-19T17:35:04;9.90;99.90
18266;DHT22;9259;48.194;16.322;2023-04-19T17:37:32;9.90;99.90
18266;DHT22;9259;48.194;16.322;2023-04-19T17:40:01;9.90;99.90
18266;DHT22;9259;48.194;16.322;2023-04-19T17:42:30;9.80;99.90
18266;DHT22;9259;48.194;16.322;2023-04-19T17:45:01;9.70;99.90
18266;DHT22;9259;48.194;16.322;2023-04-19T17:47:29;9.70;99.90
18266;DHT22;9259;48.194;16.322;2023-04-19T17:50:05;9.70;99.90
18266;DHT22;9259;48.194;16.322;2023-04-19T17:52:34;9.60;99.90
18266;DHT22;9259;48.194;16.322;2023-04-19T17:55:04;9.60;99.90
18266;DHT22;9259;48.194;16.322;2023-04-19T17:57:32;9.60;99.90
18266;DHT22;9259;48.194;16.322;2023-04-19T18:00:04;9.50;99.90
18266;DHT22;9259;48.194;16.322;2023-04-19T18:02:36;9.50;99.90
18266;DHT22;9259;48.194;16.322;2023-04-19T18:05:06;9.50;99.90
18266;DHT22;9259;48.194;16.322;2023-04-19T18:07:35;9.40;99.90
18266;DHT22;9259;48.194;16.322;2023-04-19T18:10:04;9.40;99.90
18266;DHT22;9259;48.194;16.322;2023-04-19T18:12:33;9.40;99.90
18266;DHT22;9259;48.194;16.322;2023-04-19T18:15:03;9.30;99.90
18266;DHT22;9259;48.194;16.322;2023-04-19T18:17:33;9.30;99.90
18266;DHT22;9259;48.194;16.322;2023-04-19T18:20:02;9.30;99.90
18266;DHT22;9259;48.194;16.322;2023-04-19T18:22:32;9.20;99.90
18266;DHT22;9259;48.194;16.322;2023-04-19T18:25:05;9.40;99.90
18266;DHT22;9259;48.194;16.322;2023-04-19T18:27:37;9.60;99.90
18266;DHT22;9259;48.194;16.322;2023-04-19T18:30:07;9.50;99.90
18266;DHT22;9259;48.194;16.322;2023-04-19T18:32:36;9.40;99.90
18266;DHT22;9259;48.194;16.322;2023-04-19T18:35:06;9.40;99.90
18266;DHT22;9259;48.194;16.322;2023-04-19T18:37:36;9.30;99.90
18266;DHT22;9259;48.194;16.322;2023-04-19T18:40:06;9.30;99.90
18266;DHT22;9259;48.194;16.322;2023-04-19T18:42:36;9.20;99.90
18266;DHT22;9259;48.194;16.322;2023-04-19T18:45:08;9.20;99.90
18266;DHT22;9259;48.194;16.322;2023-04-19T18:47:38;9.20;99.90
18266;DHT22;9259;48.194;16.322;2023-04-19T18:50:07;9.20;99.90
18266;DHT22;9259;48.194;16.322;2023-04-19T18:52:39;9.30;99.90
18266;DHT22;9259;48.194;16.322;2023-04-19T18:55:08;9.20;99.90
18266;DHT22;9259;48.194;16.322;2023-04-19T18:57:37;9.20;99.90
18266;DHT22;9259;48.194;16.322;2023-04-19T19:00:08;9.50;99.90
18266;DHT22;9259;48.194;16.322;2023-04-19T19:02:43;9.10;99.90
18266;DHT22;9259;48.194;16.322;2023-04-19T19:05:11;9.00;99.90
18266;DHT22;9259;48.194;16.322;2023-04-19T19:07:41;9.00;99.90
18266;DHT22;9259;48.194;16.322;2023-04-19T19:10:11;9.00;99.90
18266;DHT22;9259;48.194;16.322;2023-04-19T19:12:40;9.00;99.90
18266;DHT22;9259;48.194;16.322;2023-04-19T19:15:13;8.90;99.90
18266;DHT22;9259;48.194;16.322;2023-04-19T19:17:49;8.90;99.90
18266;DHT22;9259;48.194;16.322;2023-04-19T19:20:18;8.80;99.90
18266;DHT22;9259;48.194;16.322;2023-04-19T19:22:48;8.80;99.90
18266;DHT22;9259;48.194;16.322;2023-04-19T19:25:17;8.80;99.90
18266;DHT22;9259;48.194;16.322;2023-04-19T19:27:49;8.80;99.90
18266;DHT22;9259;48.194;16.322;2023-04-19T19:30:22;8.80;99.90
18266;DHT22;9259;48.194;16.322;2023-04-19T19:32:51;8.80;99.90
18266;DHT22;9259;48.194;16.322;2023-04-19T19:35:20;8.80;99.90
18266;DHT22;9259;48.194;16.322;2023-04-19T19:37:48;8.70;99.90
18266;DHT22;9259;48.194;16.322;2023-04-19T19:40:17;8.70;99.90
18266;DHT22;9259;48.194;16.322;2023-04-19T19:42:46;8.70;99.90
18266;DHT22;9259;48.194;16.322;2023-04-19T19:45:15;8.70;99.90
18266;DHT22;9259;48.194;16.322;2023-04-19T19:47:45;8.60;99.90
18266;DHT22;9259;48.194;16.322;2023-04-19T19:50:13;8.60;99.90
18266;DHT22;9259;48.194;16.322;2023-04-19T19:52:42;8.60;99.90
18266;DHT22;9259;48.194;16.322;2023-04-19T19:55:10;8.60;99.90
18266;DHT22;9259;48.194;16.322;2023-04-19T19:57:40;8.70;99.90
18266;DHT22;9259;48.194;16.322;2023-04-19T20:00:11;8.60;99.90
18266;DHT22;9259;48.194;16.322;2023-04-19T20:02:45;8.60;99.90
18266;DHT22;9259;48.194;16.322;2023-04-19T20:05:14;8.60;99.90
18266;DHT22;9259;48.194;16.322;2023-04-19T20:07:43;8.60;99.90
18266;DHT22;9259;48.194;16.322;2023-04-19T20:10:11;8.60;99.90
18266;DHT22;9259;48.194;16.322;2023-04-19T20:12:41;8.50;99.90
18266;DHT22;9259;48.194;16.322;2023-04-19T20:15:11;8.50;99.90
18266;DHT22;9259;48.194;16.322;2023-04-19T20:17:40;8.40;99.90
18266;DHT22;9259;48.194;16.322;2023-04-19T20:20:11;8.40;99.90
18266;DHT22;9259;48.194;16.322;2023-04-19T20:22:40;8.40;99.90
18266;DHT22;9259;48.194;16.322;2023-04-19T20:25:09;8.30;99.90
18266;DHT22;9259;48.194;16.322;2023-04-19T20:27:39;8.30;99.90
18266;DHT22;9259;48.194;16.322;2023-04-19T20:30:09;8.20;99.90
18266;DHT22;9259;48.194;16.322;2023-04-19T20:32:38;8.20;99.90
18266;DHT22;9259;48.194;16.322;2023-04-19T20:35:10;8.20;99.90
18266;DHT22;9259;48.194;16.322;2023-04-19T20:37:40;8.70;99.90
18266;DHT22;9259;48.194;16.322;2023-04-19T20:40:11;8.00;99.90
18266;DHT22;9259;48.194;16.322;2023-04-19T20:42:40;8.10;99.90
18266;DHT22;9259;48.194;16.322;2023-04-19T20:45:10;8.00;99.90
18266;DHT22;9259;48.194;16.322;2023-04-19T20:47:40;8.00;99.90
18266;DHT22;9259;48.194;16.322;2023-04-19T20:50:10;8.00;99.90
18266;DHT22;9259;48.194;16.322;2023-04-19T20:52:39;7.90;99.90
18266;DHT22;9259;48.194;16.322;2023-04-19T20:55:08;7.90;99.90
18266;DHT22;9259;48.194;16.322;2023-04-19T20:57:36;7.80;99.90
18266;DHT22;9259;48.194;16.322;2023-04-19T21:00:06;7.80;99.90
18266;DHT22;9259;48.194;16.322;2023-04-19T21:02:36;7.80;99.90
18266;DHT22;9259;48.194;16.322;2023-04-19T21:05:04;7.80;99.90
18266;DHT22;9259;48.194;16.322;2023-04-19T21:07:34;7.80;99.90
18266;DHT22;9259;48.194;16.322;2023-04-19T21:10:04;7.80;99.90
18266;DHT22;9259;48.194;16.322;2023-04-19T21:12:32;7.80;99.90
18266;DHT22;9259;48.194;16.322;2023-04-19T21:15:00;7.80;99.90
18266;DHT22;9259;48.194;16.322;2023-04-19T21:17:30;7.80;99.90
18266;DHT22;9259;48.194;16.322;2023-04-19T21:19:59;7.70;99.90
18266;DHT22;9259;48.194;16.322;2023-04-19T21:22:27;7.80;99.90
18266;DHT22;9259;48.194;16.322;2023-04-19T21:24:57;7.80;99.90
18266;DHT22;9259;48.194;16.322;2023-04-19T21:27:25;7.80;99.90
18266;DHT22;9259;48.194;16.322;2023-04-19T21:29:53;7.80;99.90
18266;DHT22;9259;48.194;16.322;2023-04-19T21:32:21;7.80;99.90
18266;DHT22;9259;48.194;16.322;2023-04-19T21:34:49;7.90;99.90
18266;DHT22;9259;48.194;16.322;2023-04-19T21:37:17;7.90;99.90
18266;DHT22;9259;48.194;16.322;2023-04-19T21:39:46;7.90;99.90
18266;DHT22;9259;48.194;16.322;2023-04-19T21:42:16;7.90;99.90
18266;DHT22;9259;48.194;16.322;2023-04-19T21:44:43;7.90;99.90
18266;DHT22;9259;48.194;16.322;2023-04-19T21:47:12;7.90;99.90
18266;DHT22;9259;48.194;16.322;2023-04-19T21:49:40;7.90;99.90
18266;DHT22;9259;48.194;16.322;2023-04-19T21:52:08;7.80;99.90
18266;DHT22;9259;48.194;16.322;2023-04-19T21:54:36;7.80;99.90
18266;DHT22;9259;48.194;16.322;2023-04-19T21:57:04;7.80;99.90
18266;DHT22;9259;48.194;16.322;2023-04-19T21:59:35;7.80;99.90
18266;DHT22;9259;48.194;16.322;2023-04-19T22:02:03;7.80;99.90
18266;DHT22;9259;48.194;16.322;2023-04-19T22:04:31;7.70;99.90
18266;DHT22;9259;48.194;16.322;2023-04-19T22:06:59;7.70;99.90
18266;DHT22;9259;48.194;16.322;2023-04-19T22:09:28;7.70;99.90
18266;DHT22;9259;48.194;16.322;2023-04-19T22:11:56;7.70;99.90
18266;DHT22;9259;48.194;16.322;2023-04-19T22:14:24;7.70;99.90
18266;DHT22;9259;48.194;16.322;2023-04-19T22:16:54;7.70;99.90
18266;DHT22;9259;48.194;16.322;2023-04-19T22:19:22;7.70;99.90
18266;DHT22;9259;48.194;16.322;2023-04-19T22:21:51;7.70;99.90
18266;DHT22;9259;48.194;16.322;2023-04-19T22:24:20;7.70;99.90
18266;DHT22;9259;48.194;16.322;2023-04-19T22:26:48;7.80;99.90
18266;DHT22;9259;48.194;16.322;2023-04-19T22:29:18;7.80;99.90
18266;DHT22;9259;48.194;16.322;2023-04-19T22:31:46;7.70;99.90
18266;DHT22;9259;48.194;16.322;2023-04-19T22:34:15;7.70;99.90
18266;DHT22;9259;48.194;16.322;2023-04-19T22:36:43;7.80;99.90
18266;DHT22;9259;48.194;16.322;2023-04-19T22:39:11;7.80;99.90
18266;DHT22;9259;48.194;16.322;2023-04-19T22:41:39;7.90;99.90
18266;DHT22;9259;48.194;16.322;2023-04-19T22:44:07;7.90;99.90
18266;DHT22;9259;48.194;16.322;2023-04-19T22:46:35;7.90;99.90
18266;DHT22;9259;48.194;16.322;2023-04-19T22:49:03;8.00;99.90
18266;DHT22;9259;48.194;16.322;2023-04-19T22:51:32;8.00;99.90
18266;DHT22;9259;48.194;16.322;2023-04-19T22:54:02;7.90;99.90
18266;DHT22;9259;48.194;16.322;2023-04-19T22:56:30;8.00;99.90
18266;DHT22;9259;48.194;16.322;2023-04-19T22:58:58;7.90;99.90
18266;DHT22;9259;48.194;16.322;2023-04-19T23:01:26;7.90;99.90
18266;DHT22;9259;48.194;16.322;2023-04-19T23:03:53;8.00;99.90
18266;DHT22;9259;48.194;16.322;2023-04-19T23:06:21;7.90;99.90
18266;DHT22;9259;48.194;16.322;2023-04-19T23:08:51;7.90;99.90
18266;DHT22;9259;48.194;16.322;2023-04-19T23:11:19;8.00;99.90
18266;DHT22;9259;48.194;16.322;2023-04-19T23:13:50;8.00;99.90
18266;DHT22;9259;48.194;16.322;2023-04-19T23:16:19;8.00;99.90
18266;DHT22;9259;48.194;16.322;2023-04-19T23:18:47;8.00;99.90
18266;DHT22;9259;48.194;16.322;2023-04-19T23:21:15;8.00;99.90
18266;DHT22;9259;48.194;16.322;2023-04-19T23:23:43;8.00;99.90
18266;DHT22;9259;48.194;16.322;2023-04-19T23:26:12;8.00;99.90
18266;DHT22;9259;48.194;16.322;2023-04-19T23:28:40;8.00;99.90
18266;DHT22;9259;48.194;16.322;2023-04-19T23:31:08;8.00;99.90
18266;DHT22;9259;48.194;16.322;2023-04-19T23:33:36;8.00;99.90
18266;DHT22;9259;48.194;16.322;2023-04-19T23:36:05;8.00;99.90
18266;DHT22;9259;48.194;16.322;2023-04-19T23:38:33;7.80;99.90
18266;DHT22;9259;48.194;16.322;2023-04-19T23:41:01;7.90;99.90
18266;DHT22;9259;48.194;16.322;2023-04-19T23:43:30;7.90;99.90
18266;DHT22;9259;48.194;16.322;2023-04-19T23:45:58;7.90;99.90
18266;DHT22;9259;48.194;16.322;2023-04-19T23:48:26;7.90;99.90
18266;DHT22;9259;48.194;16.322;2023-04-19T23:50:53;7.90;99.90
18266;DHT22;9259;48.194;16.322;2023-04-19T23:53:21;7.90;99.90
18266;DHT22;9259;48.194;16.322;2023-04-19T23:55:49;7.90;99.90
18266;DHT22;9259;48.194;16.322;2023-04-19T23:58:17;7.90;99.90
